• Join FlightAware (Why Join?)
  • Login
  • US Flag 
05:23AM EDT


 

Airport Tracker/Info


-or-


 

Live Flight TrackerFlight Track Log ✈ JST980 ✈ 18-Nov-2013 ✈ YBBN / BNE - YPPH / PER

Flight Track Log - Related Links

Times and Time Zones

All times are in EST time to prevent confusion due to time zone crossing. See the JST980 flight status page for this flight to view local times or setup timezone preferences in your user account.

Time Position Orientation Groundspeed Altitude Reporting Facility
EST Latitude Longitude Course Direction KTS MPH feet Rate Location/Type
05:49AM -27.4175 153.1107 170° South 173 199 1,400  Level Aus ATC (RADAR)
05:49AM -27.4444 153.1160 170° South 198 228 1,600 1,200 Climbing Aus ATC (RADAR)
05:50AM -27.4769 153.1379 149° Southeast 231 266 2,700 1,860 Climbing Aus ATC (RADAR)
05:50AM -27.5143 153.1485 166° South 243 280 3,800 2,160 Climbing Aus ATC (RADAR)
05:51AM -27.5513 153.1370 195° South 271 312 5,100 3,000 Climbing Aus ATC (RADAR)
05:51AM -27.5918 153.1209 199° South 265 305 7,100 2,160 Climbing Aus ATC (RADAR)
05:52AM -27.6504 153.0769 214° Southwest 286 329 8,400 1,380 Climbing Aus ATC (RADAR)
05:53AM -27.6802 153.0525 216° Southwest 311 358 9,000 2,040 Climbing Aus ATC (RADAR)
05:53AM -27.7174 153.0224 216° Southwest 326 375 10,300 2,220 Climbing Aus ATC (RADAR)
05:54AM -27.7749 152.9765 215° Southwest 339 390 11,800 1,980 Climbing Aus ATC (RADAR)
05:54AM -27.8208 152.9396 215° Southwest 346 398 13,000 1,980 Climbing Aus ATC (RADAR)
05:55AM -27.8672 152.9021 215° Southwest 351 404 14,100 1,800 Climbing Aus ATC (RADAR)
05:56AM -27.9152 152.8634 215° Southwest 362 417 15,100 1,980 Climbing Aus ATC (RADAR)
05:56AM -27.9566 152.8299 216° Southwest 366 421 16,300 1,920 Climbing Aus ATC (RADAR)
05:57AM -28.0009 152.7381 241° Southwest 363 418 17,900 1,560 Climbing Aus ATC (RADAR)
05:57AM -28.0147 152.7027 246° West 364 419 18,300 1,440 Climbing Aus ATC (RADAR)
05:58AM -28.0320 152.6576 246° West 370 426 19,000 1,800 Climbing Aus ATC (RADAR)
05:58AM -28.0563 152.5941 247° West 373 429 20,100 1,560 Climbing Aus ATC (RADAR)
05:59AM -28.0831 152.5207 248° West 376 433 21,000 1,500 Climbing Aus ATC (RADAR)
06:00AM -28.1053 152.4552 249° West 378 435 22,000 1,260 Climbing Aus ATC (RADAR)
06:00AM -28.1276 152.3886 249° West 385 443 22,500 960 Climbing Aus ATC (RADAR)
06:01AM -28.1470 152.3313 249° West 386 444 23,100 1,200 Climbing Aus ATC (RADAR)
06:01AM -28.1698 152.2631 249° West 392 451 23,800 1,080 Climbing Aus ATC (RADAR)
06:02AM -28.2030 152.1652 249° West 396 456 24,700 1,020 Climbing Aus ATC (RADAR)
06:03AM -28.2232 152.1062 249° West 399 459 25,200 900 Climbing Aus ATC (RADAR)
06:03AM -28.2467 152.0363 249° West 403 464 25,700 840 Climbing Aus ATC (RADAR)
06:04AM -28.2705 151.9653 249° West 410 472 26,200 900 Climbing Aus ATC (RADAR)
06:04AM -28.2910 151.9041 249° West 412 474 26,700 780 Climbing Aus ATC (RADAR)
06:05AM -28.3150 151.8321 249° West 416 479 27,100 840 Climbing Aus ATC (RADAR)
06:05AM -28.3360 151.7702 249° West 419 482 27,600 900 Climbing Aus ATC (RADAR)
06:06AM -28.3564 151.7076 250° West 421 484 28,000 720 Climbing Aus ATC (RADAR)
06:06AM -28.3811 151.6341 249° West 425 489 28,400 1,080 Climbing Aus ATC (RADAR)
06:07AM -28.4199 151.5195 249° West 419 482 29,700 1,260 Climbing Aus ATC (RADAR)
06:08AM -28.4336 151.4783 249° West 417 480 30,000 1,200 Climbing Aus ATC (RADAR)
06:08AM -28.4506 151.4271 249° West 414 476 30,600 1,380 Climbing Aus ATC (RADAR)
06:09AM -28.4739 151.3564 249° West 406 467 31,400 1,080 Climbing Aus ATC (RADAR)
06:09AM -28.4996 151.2781 250° West 397 457 32,000 420 Climbing Aus ATC (RADAR)
06:10AM -28.5158 151.2288 250° West 398 458 31,900 -120 Descending Aus ATC (RADAR)
06:10AM -28.5354 151.1690 249° West 402 463 31,900  Level Aus ATC (RADAR)
06:11AM -28.5617 151.0887 250° West 406 467 31,900  Level Aus ATC (RADAR)
06:11AM -28.5782 151.0383 249° West 407 468 31,900  Level Aus ATC (RADAR)
06:12AM -28.6011 150.9678 250° West 407 468 31,900  Level Aus ATC (RADAR)
06:13AM -28.6273 150.8872 250° West 408 470 31,900  Level Aus ATC (RADAR)
06:13AM -28.6438 150.8370 250° West 406 467 31,900  Level Aus ATC (RADAR)
06:14AM -28.6640 150.7759 249° West 411 473 31,900  Level Aus ATC (RADAR)
06:14AM -28.6934 150.6846 250° West 406 467 31,900  Level Aus ATC (RADAR)
06:15AM -28.7069 150.6439 249° West 407 468 31,900  Level Aus ATC (RADAR)
06:15AM -28.7300 150.5728 250° West 409 471 31,900  Level Aus ATC (RADAR)
06:16AM -28.7559 150.4915 250° West 408 470 31,900  Level Aus ATC (RADAR)
06:16AM -28.7724 150.4407 250° West 408 470 31,900  Level Aus ATC (RADAR)
06:17AM -28.7955 150.3693 250° West 411 473 31,900  Level Aus ATC (RADAR)
06:18AM -28.8312 150.2572 250° West 408 470 31,900 60 Level Aus ATC (RADAR)
06:18AM -28.8441 150.2164 250° West 408 470 32,000 60 Climbing Aus ATC (RADAR)
06:19AM -28.8668 150.1452 250° West 409 471 32,000 -120 Level Aus ATC (RADAR)
06:19AM -28.8962 150.0532 250° West 410 472 31,900  Descending Aus ATC (RADAR)
06:20AM -28.9189 149.9812 250° West 412 474 32,000 60 Climbing Aus ATC (RADAR)
06:21AM -28.9417 149.9094 250° West 413 475 32,000  Level Aus ATC (RADAR)
06:21AM -28.9676 149.8265 250° West 415 478 32,000  Level Aus ATC (RADAR)
06:22AM -28.9906 149.7542 250° West 417 480 32,000  Level Aus ATC (RADAR)
06:23AM -29.0233 149.6502 250° West 416 479 32,000  Level Aus ATC (RADAR)
06:23AM -29.0363 149.6087 250° West 417 480 32,000  Level Aus ATC (RADAR)
06:23AM -29.0526 149.5569 250° West 417 480 32,000  Level Aus ATC (RADAR)
06:24AM -29.0758 149.4839 250° West 417 480 32,000  Level Aus ATC (RADAR)
06:25AM -29.1015 149.4005 251° West 418 481 32,000  Level Aus ATC (RADAR)
06:25AM -29.1211 149.3378 250° West 418 481 32,000  Level Aus ATC (RADAR)
06:26AM -29.1439 149.2648 250° West 418 481 32,000  Level Aus ATC (RADAR)
06:26AM -29.1699 149.1812 250° West 418 481 32,000 -120 Level Aus ATC (RADAR)
06:27AM -29.1922 149.1084 251° West 417 480 31,900 -120 Descending Aus ATC (RADAR)
06:28AM -29.2322 148.9793 250° West 409 471 31,900 60 Level Aus ATC (RADAR)
06:28AM -29.2472 148.9296 251° West 421 484 32,000 60 Climbing Aus ATC (RADAR)
06:29AM -29.2688 148.8629 250° West 413 475 32,000  Level Aus ATC (RADAR)
06:30AM -29.2960 148.7717 251° West 421 484 32,000 -120 Level Aus ATC (RADAR)
06:30AM -29.3104 148.7267 250° West 411 473 31,900 -120 Descending Aus ATC (RADAR)
06:31AM -29.3332 148.6531 250° West 411 473 31,900  Level Aus ATC (RADAR)
06:31AM -29.3576 148.5724 251° West 419 482 31,900  Level Aus ATC (RADAR)
06:32AM -29.3776 148.5070 251° West 409 471 31,900  Level Aus ATC (RADAR)
06:32AM -29.3992 148.4337 251° West 408 470 31,900  Level Aus ATC (RADAR)
06:33AM -29.4313 148.3275 251° West 412 474 31,900 60 Level Aus ATC (RADAR)
06:34AM -29.4542 148.2528 251° West 414 476 32,000 60 Climbing Aus ATC (RADAR)
06:34AM -29.4772 148.1807 250° West 431 496 32,000  Level Aus ATC (RADAR)
06:35AM -29.5029 148.0931 251° West 416 479 32,000  Level Aus ATC (RADAR)
06:36AM -29.5241 148.0216 251° West 423 487 32,000 -120 Level Aus ATC (RADAR)
06:36AM -29.5423 147.9555 252° West 412 474 31,900 -120 Descending Aus ATC (RADAR)
06:37AM -29.5654 147.8717 252° West 409 471 31,900  Level Aus ATC (RADAR)
06:37AM -29.5876 147.8006 250° West 416 479 31,900  Level Aus ATC (RADAR)
06:38AM -29.6224 147.6820 251° West 410 472 31,900  Level Aus ATC (RADAR)
06:39AM -29.6415 147.6184 251° West 412 474 31,900  Level Aus ATC (RADAR)
06:39AM -29.6642 147.5464 250° West 423 487 31,900  Level Aus ATC (RADAR)
06:40AM -29.6760 147.5041 252° West 423 487 31,900  Level Aus ATC (RADAR)
06:43AM -29.7263 147.0630 257° West 28,000  Descending Aus ATC (Calculated)
06:44AM -29.7374 146.9645 257° West 28,000  Level Aus ATC (Calculated)
06:45AM -29.7579 146.7798 257° West 28,000  Level Aus ATC (Calculated)
06:46AM -29.7756 146.6181 257° West 28,000  Level Aus ATC (Calculated)
06:47AM -29.7924 146.6018 257° West  Level Estimated
06:47AM -29.7909 146.4765 257° West 28,000  Level Aus ATC (Calculated)
06:48AM -29.8060 146.4608 257° West  Level Estimated
06:49AM -29.8152 146.3502 257° West  Level Estimated
06:49AM -29.8108 146.2907 257° West 28,000  Level Aus ATC (Calculated)
06:50AM -29.8321 146.0893 257° West 28,000  Level Aus ATC (Calculated)
06:51AM -29.8479 145.9382 257° West 28,000  Level Aus ATC (Calculated)
06:52AM -29.8699 145.8903 258° West  Level Estimated
06:52AM -29.8596 145.8248 257° West 28,000  Level Aus ATC (Calculated)
06:53AM -29.8801 145.7682 258° West  Level Estimated
06:54AM -29.8858 145.6859 258° West  Level Estimated
06:54AM -29.8769 145.6547 257° West 28,000  Level Aus ATC (Calculated)
06:55AM -29.9034 145.4110 257° West 28,000  Level Aus ATC (Calculated)
06:56AM -29.9220 145.2638 257° West 28,000  Level Aus ATC (Calculated)
06:57AM -29.9404 145.1165 257° West 28,000  Level Aus ATC (Calculated)
06:58AM -29.9536 145.0935 258° West  Level Estimated
06:59AM -29.9661 144.9774 258° West  Level Estimated
06:59AM -29.9586 144.9692 257° West 28,000  Level Aus ATC (Calculated)
07:00AM -29.9767 144.8219 257° West 28,000  Level Aus ATC (Calculated)
07:01AM -30.0014 144.7365 258° West  Level Estimated
07:01AM -29.9946 144.6745 257° West 28,000  Level Aus ATC (Calculated)
07:02AM -30.0137 144.6195 258° West  Level Estimated
07:02AM -30.0123 144.5270 258° West 28,000  Level Aus ATC (Calculated)
07:03AM -30.0258 144.5034 258° West  Level Estimated
07:04AM -30.0381 144.3851 258° West  Level Estimated
07:04AM -30.0299 144.3795 258° West 28,000  Level Aus ATC (Calculated)
07:05AM -30.0473 144.2320 258° West 28,000  Level Aus ATC (Calculated)
07:06AM -30.0731 144.0105 258° West 28,000  Level Aus ATC (Calculated)
07:07AM -30.0901 143.8629 258° West 28,000  Level Aus ATC (Calculated)
07:08AM -30.1040 143.8370 258° West  Level Estimated
07:09AM -30.1135 143.7311 258° West  Level Estimated
07:09AM -30.1069 143.7151 258° West 28,000  Level Aus ATC (Calculated)
07:10AM -30.1236 143.5673 258° West 28,000  Level Aus ATC (Calculated)
07:11AM -30.1483 143.3456 258° West 28,000  Level Aus ATC (Calculated)
07:12AM -30.1541 143.3936 258° West  Level Estimated
07:13AM -30.1713 143.2137 259° West  Level Estimated
07:14AM -30.1931 143.0880 259° West  Level Estimated
07:14AM -30.1726 143.1237 258° West 28,000  Level Aus ATC (Calculated)
07:14AM -30.1726 143.1237 258° West 28,000  Level Aus ATC (Calculated)
07:15AM -30.1848 143.0113 258° West 28,000  Level Aus ATC (Calculated)
07:16AM -30.2121 142.8953 259° West  Level Estimated
07:17AM -30.2205 142.8039 259° West  Level Estimated
07:17AM -30.2207 142.6741 258° West 28,000  Level Aus ATC (Calculated)
07:18AM -30.2324 142.5616 258° West 28,000  Level Aus ATC (Calculated)
07:19AM -30.2543 142.4770 259° West  Level Estimated
07:20AM -30.2588 142.4064 259° West  Level Estimated
07:20AM -30.2557 142.3367 258° West 28,000  Level Aus ATC (Calculated)
07:21AM -30.2672 142.2241 258° West 28,000  Level Aus ATC (Calculated)
07:22AM -30.2786 142.1115 258° West 28,000  Level Aus ATC (Calculated)
07:23AM -30.3011 141.8863 258° West 28,000  Level Aus ATC (Calculated)
07:24AM -30.3080 141.9358 259° West  Level Estimated
07:25AM -30.3238 141.7498 259° West  Level Estimated
07:25AM -30.3122 141.7737 258° West 28,000  Level Aus ATC (Calculated)
07:26AM -30.3446 141.6237 259° West  Level Estimated
07:26AM -30.3232 141.6610 258° West 28,000  Level Aus ATC (Calculated)
07:27AM -30.3486 141.5531 259° West  Level Estimated
07:27AM -30.3449 141.4356 258° West 28,000  Level Aus ATC (Calculated)
07:28AM -30.3543 141.4719 259° West  Level Estimated
07:28AM -30.3449 141.4356 258° West 28,000  Level Aus ATC (Calculated)
07:29AM -30.3707 141.2780 259° West  Level Estimated
07:29AM -30.3642 141.2331 258° West 28,000  Level Aus ATC (Calculated)
07:30AM -30.3758 141.2464 259° West  Level Estimated
07:31AM -30.3899 141.0753 259° West  Level Estimated
07:31AM -30.3812 141.0534 259° West 28,000  Level Aus ATC (Calculated)
07:32AM -30.4016 140.9272 259° West  Level Estimated
07:32AM -30.3980 140.8737 259° West 28,000  Level Aus ATC (Calculated)
07:33AM -30.4145 140.6939 259° West 28,000  Level Aus ATC (Calculated)
07:34AM -30.4227 140.6040 259° West 28,000  Level Aus ATC (Calculated)
07:35AM -30.4451 140.5023 259° West  Level Estimated
07:36AM -30.4482 140.4440 259° West  Level Estimated
07:36AM -30.4389 140.4242 259° West 28,000  Level Aus ATC (Calculated)
07:37AM -30.4548 140.2442 259° West 28,000  Level Aus ATC (Calculated)
07:38AM -30.4704 140.0643 259° West 28,000  Level Aus ATC (Calculated)
07:39AM -30.4866 140.0419 260° West  Level Estimated
07:39AM -30.4859 139.8842 259° West 28,000  Level Aus ATC (Calculated)
07:40AM -30.4972 139.8935 260° West  Level Estimated
07:41AM -30.5075 139.7450 260° West  Level Estimated
07:41AM -30.5010 139.7041 259° West 28,000  Level Aus ATC (Calculated)
07:42AM -30.5271 139.6184 260° West  Level Estimated
07:42AM -30.5160 139.5240 259° West 28,000  Level Aus ATC (Calculated)
07:43AM -30.5372 139.4699 260° West  Level Estimated
07:43AM -30.5306 139.3438 259° West 28,000  Level Aus ATC (Calculated)
07:44AM -30.5455 139.3319 260° West  Level Estimated
07:45AM -30.5539 139.1918 260° West  Level Estimated
07:45AM -30.5379 139.2536 259° West 28,000  Level Aus ATC (Calculated)
07:46AM -30.5522 139.0733 259° West 28,000  Level Aus ATC (Calculated)
07:47AM -30.5662 138.8930 259° West 28,000  Level Aus ATC (Calculated)
07:48AM -30.5800 138.7126 259° West 28,000  Level Aus ATC (Calculated)
07:49AM -30.5939 138.7092 260° West  Level Estimated
07:50AM -30.6028 138.5605 260° West  Level Estimated
07:50AM -30.5936 138.5322 259° West 28,000  Level Aus ATC (Calculated)
07:51AM -30.6003 138.4419 259° West 30,000  Climbing Aus ATC (Calculated)
07:53AM -30.6354 138.2051 260° West  Level Estimated
07:54AM -30.6540 138.0782 260° West  Level Estimated
07:54AM -30.7007 138.0217 259° West 30,000  Level Aus ATC (Calculated)
07:55AM -30.6725 137.9512 260° West  Level Estimated
07:56AM -30.7361 137.7738 260° West  Level Estimated
07:56AM -30.7603 137.7691 260° West 30,000  Level Aus ATC (Calculated)
07:58AM -30.7953 137.5188 261° West  Level Estimated
07:59AM -30.8129 137.3915 261° West  Level Estimated
08:00AM -30.8304 137.2641 261° West  Level Estimated
08:01AM -30.8477 137.1366 261° West  Level Estimated
08:01AM -30.8974 137.1786 260° West 30,000  Level Aus ATC (Calculated)
08:03AM -30.9307 136.9276 261° West  Level Estimated
08:04AM -30.9474 136.7999 261° West  Level Estimated
08:05AM -30.9640 136.6722 261° West  Level Estimated
08:06AM -30.9804 136.5444 261° West  Level Estimated
08:06AM -31.0509 136.5017 261° West 30,000  Level Aus ATC (Calculated)
08:07AM -30.9967 136.4166 261° West  Level Estimated
08:08AM -31.0823 136.2478 262° West  Level Estimated
08:09AM -31.0979 136.1197 262° West  Level Estimated
08:10AM -31.1135 135.9916 262° West  Level Estimated
08:11AM -31.1289 135.8635 262° West  Level Estimated
08:11AM -31.2008 135.8227 261° West 30,000  Level Aus ATC (Calculated)
08:11AM -31.2193 135.7377 261° West 30,000  Level Aus ATC (Calculated)
08:13AM -31.2373 135.5798 262° West  Level Estimated
08:14AM -31.2518 135.4518 262° West  Level Estimated
08:14AM -31.2642 135.4214 262° West 34,000  Level Aus ATC (Calculated)
08:15AM -31.2864 135.2632 262° West 34,000  Level Aus ATC (Calculated)
08:16AM -31.2974 135.1841 262° West 34,000  Level Aus ATC (Calculated)
08:18AM -31.3184 134.9911 263° West  Level Estimated
08:18AM -31.3410 134.8674 262° West 34,000  Level Aus ATC (Calculated)
08:19AM -31.3322 134.8624 263° West  Level Estimated
08:20AM -31.3589 134.6978 263° West  Level Estimated
08:21AM -31.3724 134.5690 263° West  Level Estimated
08:21AM -31.3838 134.5503 262° West 34,000  Level Aus ATC (Calculated)
08:22AM -31.3857 134.4402 263° West  Level Estimated
08:23AM -31.4047 134.3463 263° West  Level Estimated
08:24AM -31.4177 134.2174 263° West  Level Estimated
08:25AM -31.4307 134.0884 263° West  Level Estimated
08:26AM -31.4435 133.9595 263° West  Level Estimated
08:26AM -31.4772 133.8360 262° West 34,000  Level Aus ATC (Calculated)
08:28AM -31.4970 133.6294 264° West  Level Estimated
08:29AM -31.5091 133.5003 264° West  Level Estimated
08:30AM -31.5212 133.3711 264° West  Level Estimated
08:31AM -31.5331 133.2419 264° West  Level Estimated
08:31AM -31.5569 133.1999 263° West 34,000  Level Aus ATC (Calculated)
08:33AM -31.5754 132.9930 264° West  Level Estimated
08:34AM -31.5868 132.8636 264° West  Level Estimated
08:35AM -31.5981 132.7342 264° West  Level Estimated
08:36AM -31.6092 132.6048 264° West  Level Estimated
08:36AM -31.6335 132.5627 263° West 34,000  Level Aus ATC (Calculated)
08:37AM -31.6202 132.4753 264° West  Level Estimated
08:38AM -31.6509 132.3526 264° West  Level Estimated
08:39AM -31.6616 132.2226 264° West  Level Estimated
08:40AM -31.6721 132.0926 265° West  Level Estimated
08:41AM -31.6824 131.9625 265° West  Level Estimated
08:41AM -31.7068 131.9245 264° West 34,000  Level Aus ATC (Calculated)
08:43AM -31.7230 131.7141 265° West  Level Estimated
08:44AM -31.7328 131.5839 265° West  Level Estimated
08:45AM -31.7425 131.4537 265° West  Level Estimated
08:46AM -31.7520 131.3235 265° West  Level Estimated
08:46AM -31.7856 131.2054 264° West 34,000  Level Aus ATC (Calculated)
08:48AM -31.7954 131.0642 265° West  Level Estimated
08:49AM -31.8044 130.9338 265° West  Level Estimated
08:50AM -31.8132 130.8034 265° West  Level Estimated
08:51AM -31.8218 130.6730 265° West  Level Estimated
08:51AM -31.8522 130.5652 264° West 34,000  Level Aus ATC (Calculated)
08:52AM -31.8304 130.5425 266° West  Level Estimated
08:53AM -31.8656 130.3520 266° West  Level Estimated
08:54AM -31.8736 130.2214 266° West  Level Estimated
08:55AM -31.8814 130.0909 266° West  Level Estimated
08:56AM -31.8892 129.9602 266° West  Level Estimated
08:56AM -31.9156 129.9241 265° West 34,000  Level Aus ATC (Calculated)
08:58AM -31.9276 129.7084 266° West  Level Estimated
08:59AM -31.9346 129.5811 266° West  Level Estimated
09:00AM -31.9414 129.4539 266° West  Level Estimated
09:01AM -31.9481 129.3265 266° West  Level Estimated
09:01AM -31.9830 129.2018 265° West 34,000  Level Aus ATC (Calculated)
09:03AM -31.9916 129.0251 267° West  Level Estimated
09:04AM -31.9977 128.8943 267° West  Level Estimated
09:05AM -32.0037 128.7634 267° West  Level Estimated
09:06AM -32.0096 128.6324 267° West  Level Estimated
09:06AM -32.0327 128.6393 266° West 34,000  Level Aus ATC (Calculated)
09:07AM -32.0153 128.5015 267° West  Level Estimated
09:08AM -32.0417 128.4232 267° West  Level Estimated
09:09AM -32.0470 128.2922 267° West  Level Estimated
09:10AM -32.0521 128.1612 267° West  Level Estimated
09:11AM -32.0572 128.0302 267° West  Level Estimated
09:11AM -32.0864 127.9958 266° West 34,000  Level Aus ATC (Calculated)
09:12AM -32.0620 127.8991 267° West  Level Estimated
09:12AM -32.0993 127.8348 266° West 34,000  Level Aus ATC (Calculated)
09:13AM -32.0939 127.7773 268° West  Level Estimated
09:14AM -32.1062 127.6206 268° West  Level Estimated
09:15AM -32.1103 127.4894 268° West  Level Estimated
09:16AM -32.1143 127.3583 268° West  Level Estimated
09:16AM -32.1429 127.2709 267° West 34,000  Level Aus ATC (Calculated)
09:18AM -32.1487 127.0437 268° West  Level Estimated
09:19AM -32.1520 126.9074 268° West  Level Estimated
09:19AM -32.1782 126.7872 267° West 34,000  Level Aus ATC (Calculated)
09:20AM -32.1552 126.7711 268° West  Level Estimated
09:21AM -32.1811 126.6440 269° West  Level Estimated
09:21AM -32.1896 126.6259 267° West 34,000  Level Aus ATC (Calculated)
09:23AM -32.1937 126.3963 269° West  Level Estimated
09:24AM -32.1959 126.2598 269° West  Level Estimated
09:25AM -32.1980 126.1234 269° West  Level Estimated
09:26AM -32.1999 125.9870 269° West  Level Estimated
09:26AM -32.2383 125.8994 268° West 34,000  Level Aus ATC (Calculated)
09:27AM -32.2017 125.8506 269° West  Level Estimated
09:28AM -32.2395 125.7584 269° West  Level Estimated
09:28AM -32.2485 125.7379 268° West 34,000  Level Aus ATC (Calculated)
09:28AM -32.2536 125.6571 268° West 34,000  Level Aus ATC (Calculated)
09:30AM -32.2545 125.4910 270° West  Level Estimated
09:30AM -32.2630 125.3800 268° West 34,000  Level Aus ATC (Calculated)
09:31AM -32.2550 125.3545 270° West  Level Estimated
09:32AM -32.2634 125.2047 270° West  Level Estimated
09:32AM -32.2616 125.1488 268° West 34,000  Level Aus ATC (Calculated)
09:33AM -32.2635 125.0682 270° West  Level Estimated
09:34AM -32.2617 124.9759 270° West  Level Estimated
09:35AM -32.2616 124.8393 270° West  Level Estimated
09:35AM -32.2576 124.6865 268° West 34,000  Level Aus ATC (Calculated)
09:37AM -32.2571 124.5113 270° West  Level Estimated
09:38AM -32.2566 124.3748 270° West  Level Estimated
09:39AM -32.2559 124.2383 270° West  Level Estimated
09:40AM -32.2551 124.1017 270° West  Level Estimated
09:40AM -32.2502 124.1088 268° West 34,000  Level Aus ATC (Calculated)
09:41AM -32.2541 123.9652 270° West  Level Estimated
09:42AM -32.2491 123.9313 270° West  Level Estimated
09:43AM -32.2480 123.7948 270° West  Level Estimated
09:44AM -32.2468 123.6583 271° West  Level Estimated
09:45AM -32.2454 123.5218 271° West  Level Estimated
09:45AM -32.2379 123.4156 268° West 34,000  Level Aus ATC (Calculated)
09:46AM -32.2439 123.3853 271° West  Level Estimated
09:46AM -32.2355 123.3001 268° West 34,000  Level Aus ATC (Calculated)
09:47AM -32.2359 123.2381 271° West  Level Estimated
09:48AM -32.2331 123.0999 271° West  Level Estimated
09:49AM -32.2313 122.9634 271° West  Level Estimated
09:50AM -32.2293 122.8269 271° West  Level Estimated
09:50AM -32.2218 122.7226 268° West 34,000  Level Aus ATC (Calculated)
09:51AM -32.2271 122.6905 271° West  Level Estimated
09:52AM -32.2190 122.5429 271° West  Level Estimated
09:53AM -32.2167 122.4065 271° West  Level Estimated
09:54AM -32.2142 122.2701 271° West  Level Estimated
09:55AM -32.2116 122.1336 271° West  Level Estimated
09:55AM -32.2055 122.1453 267° West 34,000  Level Aus ATC (Calculated)
09:56AM -32.1983 121.9145 266° West 34,000 120 Level Aus ATC (Calculated)
09:58AM -32.1951 121.7622 271° West  Level Estimated
09:58AM -32.2001 121.6994 266° West 34,000  Level Aus ATC (Calculated)
09:59AM -32.1922 121.6258 271° West  Level Estimated
09:59AM -32.2057 121.5998 266° West 34,000  Level Aus ATC (Calculated)
10:00AM -32.1959 121.5176 272° West  Level Estimated
10:01AM -32.2020 121.4543 272° West  Level Estimated
10:02AM -32.1984 121.3179 272° West  Level Estimated
10:03AM -32.1946 121.1816 272° West  Level Estimated
10:03AM -32.2325 121.1015 266° West 34,000  Level Aus ATC (Calculated)
10:03AM -32.2377 121.0018 266° West 34,000 420 Level Aus ATC (Calculated)
10:05AM -32.2318 120.8540 273° West  Level Estimated
10:06AM -32.2262 120.7177 273° West  Level Estimated
10:07AM -32.2205 120.5814 273° West  Level Estimated
10:07AM -32.2800 120.1265 273° West 407 468 36,100  Level Aus ATC (RADAR)
10:08AM -32.2783 119.9927 271° West 402 463 36,100  Level Aus ATC (RADAR)
10:09AM -32.2857 119.8463 267° West 405 466 36,100  Level Aus ATC (RADAR)
10:10AM -32.2926 119.7002 267° West 404 465 36,100  Level Aus ATC (RADAR)
10:11AM -32.2967 119.5659 268° West 403 464 36,100 -120 Level Aus ATC (RADAR)
10:12AM -32.3058 119.4850 268° West 410 472 36,000 60 Descending FlightAware ADS-B (YPPH / PER)
10:12AM -32.3015 119.4209 268° West 400 460 36,200  Climbing Aus ATC (RADAR)
10:13AM -32.3095 119.3883 267° West 409 471 36,000 -300 Descending FlightAware ADS-B (YPPH / PER)
10:13AM -32.3121 119.3208 267° West 409 471 36,000  Level FlightAware ADS-B (YPPH / PER)
10:14AM -32.3148 119.2505 267° West 409 471 36,000  Level FlightAware ADS-B (YPPH / PER)
10:14AM -32.3172 119.1833 268° West 409 471 36,000  Level FlightAware ADS-B (YPPH / PER)
10:15AM -32.3197 119.1148 267° West 410 472 36,000  Level FlightAware ADS-B (YPPH / PER)
10:15AM -32.3221 119.0481 268° West 410 472 36,000  Level FlightAware ADS-B (YPPH / PER)
10:16AM -32.3245 118.9780 268° West 407 468 36,000  Level FlightAware ADS-B (YPPH / PER)
10:16AM -32.3267 118.9127 268° West 395 455 36,000  Level FlightAware ADS-B (YPPH / PER)
10:17AM -32.3289 118.8466 268° West 384 442 36,000  Level FlightAware ADS-B (YPPH / PER)
10:17AM -32.3316 118.7653 268° West 381 438 36,000  Level FlightAware ADS-B (YPPH / PER)
10:18AM -32.3338 118.6988 268° West 383 441 36,000  Level FlightAware ADS-B (YPPH / PER)
10:18AM -32.3360 118.6363 268° West 384 442 36,000  Level FlightAware ADS-B (YPPH / PER)
10:19AM -32.3382 118.5713 268° West 386 444 36,000  Level FlightAware ADS-B (YPPH / PER)
10:19AM -32.3401 118.5099 268° West 387 445 36,000  Level FlightAware ADS-B (YPPH / PER)
10:20AM -32.3423 118.4424 268° West 388 447 36,000  Level FlightAware ADS-B (YPPH / PER)
10:20AM -32.3442 118.3781 268° West 390 449 36,000  Level FlightAware ADS-B (YPPH / PER)
10:21AM -32.3462 118.3128 268° West 391 450 36,000  Level FlightAware ADS-B (YPPH / PER)
10:22AM -32.3487 118.2275 268° West 392 451 36,000  Level FlightAware ADS-B (YPPH / PER)
10:22AM -32.3505 118.1622 268° West 393 452 36,000  Level FlightAware ADS-B (YPPH / PER)
10:23AM -32.3523 118.0975 268° West 389 448 36,000 -780 Level FlightAware ADS-B (YPPH / PER)
10:23AM -32.3540 118.0334 268° West 385 443 35,200 -1,620 Descending FlightAware ADS-B (YPPH / PER)
10:24AM -32.3563 117.9474 268° West 375 432 34,100 -1,560 Descending FlightAware ADS-B (YPPH / PER)
10:24AM -32.3580 117.8862 268° West 365 420 33,400 -1,800 Descending FlightAware ADS-B (YPPH / PER)
10:25AM -32.3596 117.8242 268° West 363 418 32,300 -1,800 Descending FlightAware ADS-B (YPPH / PER)
10:25AM -32.3600 117.7529 268° West 347 399 31,400 -1,500 Descending Aus ATC (RADAR)
10:26AM -32.3616 117.7462 268° West 355 409 31,300 -1,860 Descending FlightAware ADS-B (YPPH / PER)
10:26AM -32.3622 117.6872 269° West 350 403 30,400 -1,680 Descending FlightAware ADS-B (YPPH / PER)
10:27AM -32.3565 117.6307 277° West 345 397 29,600 -1,680 Descending FlightAware ADS-B (YPPH / PER)
10:27AM -32.3440 117.5743 285° West 342 394 28,700 -1,680 Descending FlightAware ADS-B (YPPH / PER)
10:28AM -32.3274 117.5133 285° West 326 375 27,800 -1,740 Descending Aus ATC (RADAR)
10:28AM -32.3272 117.5043 285° West 335 386 27,600 -1,980 Descending FlightAware ADS-B (YPPH / PER)
10:28AM -32.3140 117.4490 286° West 333 383 26,600 -1,680 Descending FlightAware ADS-B (YPPH / PER)
10:29AM -32.3012 117.3958 286° West 327 376 25,900 -1,620 Descending FlightAware ADS-B (YPPH / PER)
10:29AM -32.2884 117.3432 286° West 323 372 25,000 -1,500 Descending FlightAware ADS-B (YPPH / PER)
10:30AM -32.2764 117.2930 286° West 316 364 24,400 -1,440 Descending FlightAware ADS-B (YPPH / PER)
10:30AM -32.2601 117.2256 286° West 310 357 23,300 -1,620 Descending FlightAware ADS-B (YPPH / PER)
10:31AM -32.2478 117.1755 286° West 308 354 22,500 -1,620 Descending FlightAware ADS-B (YPPH / PER)
10:31AM -32.2360 117.1269 286° West 305 351 21,700 -1,620 Descending FlightAware ADS-B (YPPH / PER)
10:32AM -32.2240 117.0779 286° West 301 346 20,900 -1,620 Descending FlightAware ADS-B (YPPH / PER)
10:32AM -32.2127 117.0314 286° West 297 342 20,100 -1,620 Descending FlightAware ADS-B (YPPH / PER)
10:33AM -32.2007 116.9828 286° West 297 342 19,300 -1,620 Descending FlightAware ADS-B (YPPH / PER)
10:34AM -32.1854 116.9206 286° West 296 341 18,200 -1,800 Descending FlightAware ADS-B (YPPH / PER)
10:34AM -32.1742 116.8905 294° West 295 339 17,500 -1,920 Descending FlightAware ADS-B (YPPH / PER)
10:34AM -32.1485 116.8511 308° West 298 343 16,600 -1,680 Descending FlightAware ADS-B (YPPH / PER)
10:35AM -32.1217 116.8111 308° West 293 337 15,800 -1,560 Descending FlightAware ADS-B (YPPH / PER)
10:36AM -32.0954 116.7717 308° West 294 338 15,000 -1,500 Descending FlightAware ADS-B (YPPH / PER)
10:36AM -32.0703 116.7340 308° West 290 334 14,300 -1,680 Descending FlightAware ADS-B (YPPH / PER)
10:37AM -32.0375 116.6845 308° West 289 333 13,100 -1,860 Descending FlightAware ADS-B (YPPH / PER)
10:37AM -32.0114 116.6453 308° West 294 338 12,100 -1,800 Descending FlightAware ADS-B (YPPH / PER)
10:38AM -31.9857 116.6068 308° West 291 335 11,300 -1,620 Descending FlightAware ADS-B (YPPH / PER)
10:38AM -31.9590 116.5667 308° West 294 338 10,400 -1,620 Descending FlightAware ADS-B (YPPH / PER)
10:39AM -31.9428 116.5412 307° West 292 336 9,900 -1,200 Descending FlightAware ADS-B (YPPH / PER)
10:39AM -31.9291 116.5143 301° West 283 326 9,600 -900 Descending FlightAware ADS-B (YPPH / PER)
10:39AM -31.9152 116.4869 301° West 265 305 9,300 -900 Descending FlightAware ADS-B (YPPH / PER)
10:40AM -31.9024 116.4619 301° West 259 298 9,000 -1,200 Descending FlightAware ADS-B (YPPH / PER)
10:40AM -31.8899 116.4378 301° West 257 296 8,500 -1,500 Descending FlightAware ADS-B (YPPH / PER)
10:40AM -31.8767 116.4121 301° West 258 297 8,000 -1,440 Descending FlightAware ADS-B (YPPH / PER)
10:41AM -31.8634 116.3860 301° West 259 298 7,500 -1,380 Descending FlightAware ADS-B (YPPH / PER)
10:41AM -31.8520 116.3638 301° West 259 298 7,100 -1,380 Descending FlightAware ADS-B (YPPH / PER)
10:41AM -31.8382 116.3368 301° West 259 298 6,600 -1,500 Descending FlightAware ADS-B (YPPH / PER)
10:42AM -31.8245 116.3101 301° West 260 299 6,000 -1,320 Descending FlightAware ADS-B (YPPH / PER)
10:42AM -31.8119 116.2856 301° West 257 296 5,700 -780 Descending FlightAware ADS-B (YPPH / PER)
10:42AM -31.7998 116.2621 301° West 250 288 5,500 -780 Descending FlightAware ADS-B (YPPH / PER)
10:43AM -31.7895 116.2361 295° West 243 280 5,200 -900 Descending FlightAware ADS-B (YPPH / PER)
10:43AM -31.7840 116.2120 285° West 236 272 4,900 -840 Descending FlightAware ADS-B (YPPH / PER)
10:43AM -31.7775 116.1833 285° West 229 264 4,600 -720 Descending FlightAware ADS-B (YPPH / PER)
10:44AM -31.7697 116.1502 286° West 229 264 4,300 -720 Descending FlightAware ADS-B (YPPH / PER)
10:44AM -31.7630 116.1212 285° West 234 269 4,000 -780 Descending FlightAware ADS-B (YPPH / PER)
10:45AM -31.7564 116.0925 285° West 234 269 3,700 -540 Descending FlightAware ADS-B (YPPH / PER)
10:45AM -31.7612 116.0653 258° West 200 230 3,600 -180 Descending FlightAware ADS-B (YPPH / PER)
10:45AM -31.7688 116.0546 230° Southwest 192 221 3,600 -600 Level FlightAware ADS-B (YPPH / PER)
10:46AM -31.7801 116.0401 228° Southwest 185 213 3,300 -1,020 Descending FlightAware ADS-B (YPPH / PER)
10:46AM -31.8023 116.0079 231° Southwest 167 192 2,600 -1,080 Descending FlightAware ADS-B (YPPH / PER)
10:46AM -31.8087 116.0038 209° Southwest 156 180 2,400 -780 Descending FlightAware ADS-B (YPPH / PER)
10:48AM -31.8577 115.9892 209° Southwest 132 152 1,500 -720 Descending Aus ATC (RADAR)
10:49AM -31.8983 115.9775 194° South 141 162 700 -780 Descending Aus ATC (RADAR)